sensor_id;sensor_type;location;lat;lon;timestamp;temperature;humidity
4245;DHT22;2136;48.502;9.194;2023-02-05T00:00:50;4.80;88.10
4245;DHT22;2136;48.502;9.194;2023-02-05T00:03:17;4.80;87.70
4245;DHT22;2136;48.502;9.194;2023-02-05T00:05:43;5.00;88.10
4245;DHT22;2136;48.502;9.194;2023-02-05T00:08:10;5.00;88.60
4245;DHT22;2136;48.502;9.194;2023-02-05T00:10:37;4.80;87.40
4245;DHT22;2136;48.502;9.194;2023-02-05T00:13:04;4.90;88.00
4245;DHT22;2136;48.502;9.194;2023-02-05T00:15:34;5.00;86.30
4245;DHT22;2136;48.502;9.194;2023-02-05T00:18:05;4.90;86.00
4245;DHT22;2136;48.502;9.194;2023-02-05T00:20:32;5.00;85.90
4245;DHT22;2136;48.502;9.194;2023-02-05T00:22:58;4.90;86.20
4245;DHT22;2136;48.502;9.194;2023-02-05T00:25:25;4.90;86.40
4245;DHT22;2136;48.502;9.194;2023-02-05T00:27:52;4.90;86.50
4245;DHT22;2136;48.502;9.194;2023-02-05T00:30:19;5.10;87.10
4245;DHT22;2136;48.502;9.194;2023-02-05T00:32:47;4.90;86.60
4245;DHT22;2136;48.502;9.194;2023-02-05T00:35:14;4.90;86.50
4245;DHT22;2136;48.502;9.194;2023-02-05T00:37:41;4.90;86.90
4245;DHT22;2136;48.502;9.194;2023-02-05T00:40:09;4.90;87.10
4245;DHT22;2136;48.502;9.194;2023-02-05T00:42:35;4.90;87.10
4245;DHT22;2136;48.502;9.194;2023-02-05T00:45:03;4.80;86.90
4245;DHT22;2136;48.502;9.194;2023-02-05T00:47:30;4.80;87.20
4245;DHT22;2136;48.502;9.194;2023-02-05T00:49:58;4.90;87.50
4245;DHT22;2136;48.502;9.194;2023-02-05T00:52:25;4.90;89.60
4245;DHT22;2136;48.502;9.194;2023-02-05T00:54:51;5.00;88.50
4245;DHT22;2136;48.502;9.194;2023-02-05T00:57:18;5.00;88.10
4245;DHT22;2136;48.502;9.194;2023-02-05T00:59:49;5.00;87.70
4245;DHT22;2136;48.502;9.194;2023-02-05T01:02:16;5.10;87.70
4245;DHT22;2136;48.502;9.194;2023-02-05T01:04:47;5.00;87.70
4245;DHT22;2136;48.502;9.194;2023-02-05T01:07:16;5.10;87.70
4245;DHT22;2136;48.502;9.194;2023-02-05T01:09:43;5.10;87.50
4245;DHT22;2136;48.502;9.194;2023-02-05T01:12:09;5.00;87.70
4245;DHT22;2136;48.502;9.194;2023-02-05T01:14:38;5.00;87.80
4245;DHT22;2136;48.502;9.194;2023-02-05T01:17:05;5.10;87.80
4245;DHT22;2136;48.502;9.194;2023-02-05T01:19:32;5.10;87.70
4245;DHT22;2136;48.502;9.194;2023-02-05T01:21:59;5.10;87.80
4245;DHT22;2136;48.502;9.194;2023-02-05T01:24:27;5.10;87.90
4245;DHT22;2136;48.502;9.194;2023-02-05T01:26:54;5.10;88.20
4245;DHT22;2136;48.502;9.194;2023-02-05T01:29:23;5.00;88.00
4245;DHT22;2136;48.502;9.194;2023-02-05T01:31:50;5.00;87.90
4245;DHT22;2136;48.502;9.194;2023-02-05T01:34:17;5.10;88.00
4245;DHT22;2136;48.502;9.194;2023-02-05T01:36:44;5.00;88.30
4245;DHT22;2136;48.502;9.194;2023-02-05T01:39:11;5.00;88.40
4245;DHT22;2136;48.502;9.194;2023-02-05T01:41:40;5.00;88.70
4245;DHT22;2136;48.502;9.194;2023-02-05T01:44:10;5.00;89.10
4245;DHT22;2136;48.502;9.194;2023-02-05T01:46:38;5.00;88.90
4245;DHT22;2136;48.502;9.194;2023-02-05T01:49:07;5.00;88.40
4245;DHT22;2136;48.502;9.194;2023-02-05T01:51:36;4.90;87.70
4245;DHT22;2136;48.502;9.194;2023-02-05T01:54:04;4.90;87.70
4245;DHT22;2136;48.502;9.194;2023-02-05T01:56:36;4.80;88.20
4245;DHT22;2136;48.502;9.194;2023-02-05T01:59:09;4.80;89.10
4245;DHT22;2136;48.502;9.194;2023-02-05T02:01:38;4.90;90.00
4245;DHT22;2136;48.502;9.194;2023-02-05T02:04:05;4.80;90.50
4245;DHT22;2136;48.502;9.194;2023-02-05T02:06:33;4.80;90.60
4245;DHT22;2136;48.502;9.194;2023-02-05T02:09:02;4.70;90.70
4245;DHT22;2136;48.502;9.194;2023-02-05T02:11:32;4.80;90.80
4245;DHT22;2136;48.502;9.194;2023-02-05T02:14:02;4.80;90.90
4245;DHT22;2136;48.502;9.194;2023-02-05T02:16:32;4.70;90.80
4245;DHT22;2136;48.502;9.194;2023-02-05T02:19:01;4.70;90.80
4245;DHT22;2136;48.502;9.194;2023-02-05T02:27:56;4.60;91.40
4245;DHT22;2136;48.502;9.194;2023-02-05T02:30:26;4.60;91.50
4245;DHT22;2136;48.502;9.194;2023-02-05T02:33:03;4.50;91.70
4245;DHT22;2136;48.502;9.194;2023-02-05T02:35:35;4.60;91.90
4245;DHT22;2136;48.502;9.194;2023-02-05T02:38:08;4.60;92.00
4245;DHT22;2136;48.502;9.194;2023-02-05T02:40:41;4.60;92.30
4245;DHT22;2136;48.502;9.194;2023-02-05T02:43:11;4.60;92.50
4245;DHT22;2136;48.502;9.194;2023-02-05T02:45:44;4.60;92.70
4245;DHT22;2136;48.502;9.194;2023-02-05T02:48:12;4.60;92.60
4245;DHT22;2136;48.502;9.194;2023-02-05T02:50:43;4.60;92.30
4245;DHT22;2136;48.502;9.194;2023-02-05T02:53:14;4.70;91.90
4245;DHT22;2136;48.502;9.194;2023-02-05T02:55:43;4.70;91.90
4245;DHT22;2136;48.502;9.194;2023-02-05T02:58:18;4.70;91.80
4245;DHT22;2136;48.502;9.194;2023-02-05T03:00:46;4.70;91.60
4245;DHT22;2136;48.502;9.194;2023-02-05T03:03:15;4.70;91.50
4245;DHT22;2136;48.502;9.194;2023-02-05T03:05:45;4.70;91.50
4245;DHT22;2136;48.502;9.194;2023-02-05T03:08:16;4.60;91.40
4245;DHT22;2136;48.502;9.194;2023-02-05T03:10:47;4.70;91.10
4245;DHT22;2136;48.502;9.194;2023-02-05T03:13:15;4.60;91.10
4245;DHT22;2136;48.502;9.194;2023-02-05T03:15:44;4.60;91.20
4245;DHT22;2136;48.502;9.194;2023-02-05T03:18:13;4.60;91.20
4245;DHT22;2136;48.502;9.194;2023-02-05T03:20:46;4.60;91.20
4245;DHT22;2136;48.502;9.194;2023-02-05T03:23:13;4.60;91.10
4245;DHT22;2136;48.502;9.194;2023-02-05T03:25:40;4.60;90.80
4245;DHT22;2136;48.502;9.194;2023-02-05T03:28:07;4.50;90.80
4245;DHT22;2136;48.502;9.194;2023-02-05T03:30:42;4.50;91.00
4245;DHT22;2136;48.502;9.194;2023-02-05T03:33:24;4.50;91.00
4245;DHT22;2136;48.502;9.194;2023-02-05T03:35:59;4.40;90.70
4245;DHT22;2136;48.502;9.194;2023-02-05T03:38:41;4.40;90.70
4245;DHT22;2136;48.502;9.194;2023-02-05T03:41:18;4.50;91.00
4245;DHT22;2136;48.502;9.194;2023-02-05T03:43:49;4.40;91.20
4245;DHT22;2136;48.502;9.194;2023-02-05T03:46:30;4.40;91.70
4245;DHT22;2136;48.502;9.194;2023-02-05T03:49:05;4.40;92.10
4245;DHT22;2136;48.502;9.194;2023-02-05T03:51:41;4.40;91.90
4245;DHT22;2136;48.502;9.194;2023-02-05T03:54:15;4.40;91.80
4245;DHT22;2136;48.502;9.194;2023-02-05T03:56:48;4.40;92.00
4245;DHT22;2136;48.502;9.194;2023-02-05T03:59:18;4.40;92.50
4245;DHT22;2136;48.502;9.194;2023-02-05T04:01:47;4.40;92.60
4245;DHT22;2136;48.502;9.194;2023-02-05T04:04:14;4.40;92.80
4245;DHT22;2136;48.502;9.194;2023-02-05T04:06:41;4.40;92.70
4245;DHT22;2136;48.502;9.194;2023-02-05T04:09:09;4.50;92.60
4245;DHT22;2136;48.502;9.194;2023-02-05T04:11:36;4.60;92.40
4245;DHT22;2136;48.502;9.194;2023-02-05T04:14:03;4.50;92.50
4245;DHT22;2136;48.502;9.194;2023-02-05T04:16:30;4.50;92.70
4245;DHT22;2136;48.502;9.194;2023-02-05T04:18:58;4.50;92.70
4245;DHT22;2136;48.502;9.194;2023-02-05T04:21:25;4.50;92.40
4245;DHT22;2136;48.502;9.194;2023-02-05T04:23:52;4.50;92.20
4245;DHT22;2136;48.502;9.194;2023-02-05T04:26:19;4.50;92.10
4245;DHT22;2136;48.502;9.194;2023-02-05T04:28:46;4.40;91.80
4245;DHT22;2136;48.502;9.194;2023-02-05T04:31:13;4.40;92.00
4245;DHT22;2136;48.502;9.194;2023-02-05T04:33:40;4.30;91.70
4245;DHT22;2136;48.502;9.194;2023-02-05T04:36:09;4.30;91.80
4245;DHT22;2136;48.502;9.194;2023-02-05T04:38:36;4.30;92.10
4245;DHT22;2136;48.502;9.194;2023-02-05T04:41:03;4.20;92.00
4245;DHT22;2136;48.502;9.194;2023-02-05T04:43:30;4.20;92.00
4245;DHT22;2136;48.502;9.194;2023-02-05T04:45:57;4.20;91.80
4245;DHT22;2136;48.502;9.194;2023-02-05T04:48:24;4.10;91.80
4245;DHT22;2136;48.502;9.194;2023-02-05T04:50:51;4.10;92.10
4245;DHT22;2136;48.502;9.194;2023-02-05T04:53:19;4.00;92.20
4245;DHT22;2136;48.502;9.194;2023-02-05T04:55:45;4.00;92.40
4245;DHT22;2136;48.502;9.194;2023-02-05T04:58:12;3.90;92.20
4245;DHT22;2136;48.502;9.194;2023-02-05T05:00:39;3.90;92.40
4245;DHT22;2136;48.502;9.194;2023-02-05T05:03:06;3.80;92.30
4245;DHT22;2136;48.502;9.194;2023-02-05T05:05:33;3.70;92.40
4245;DHT22;2136;48.502;9.194;2023-02-05T05:08:00;3.70;92.90
4245;DHT22;2136;48.502;9.194;2023-02-05T05:10:28;3.60;93.20
4245;DHT22;2136;48.502;9.194;2023-02-05T05:12:55;3.60;93.70
4245;DHT22;2136;48.502;9.194;2023-02-05T05:15:22;3.70;94.20
4245;DHT22;2136;48.502;9.194;2023-02-05T05:17:49;3.60;94.60
4245;DHT22;2136;48.502;9.194;2023-02-05T05:20:16;3.70;94.90
4245;DHT22;2136;48.502;9.194;2023-02-05T05:22:43;3.70;94.90
4245;DHT22;2136;48.502;9.194;2023-02-05T05:25:10;3.90;94.90
4245;DHT22;2136;48.502;9.194;2023-02-05T05:27:38;3.80;94.90
4245;DHT22;2136;48.502;9.194;2023-02-05T05:30:06;3.90;95.80
4245;DHT22;2136;48.502;9.194;2023-02-05T05:32:33;4.00;94.50
4245;DHT22;2136;48.502;9.194;2023-02-05T05:34:59;4.00;94.40
4245;DHT22;2136;48.502;9.194;2023-02-05T05:37:26;4.00;94.20
4245;DHT22;2136;48.502;9.194;2023-02-05T05:39:53;4.10;94.20
4245;DHT22;2136;48.502;9.194;2023-02-05T05:42:39;4.10;93.90
4245;DHT22;2136;48.502;9.194;2023-02-05T05:45:24;4.10;93.90
4245;DHT22;2136;48.502;9.194;2023-02-05T05:47:51;4.10;93.80
4245;DHT22;2136;48.502;9.194;2023-02-05T05:50:18;4.20;94.00
4245;DHT22;2136;48.502;9.194;2023-02-05T05:52:44;4.10;94.30
4245;DHT22;2136;48.502;9.194;2023-02-05T05:55:11;4.20;94.80
4245;DHT22;2136;48.502;9.194;2023-02-05T05:57:39;4.20;94.60
4245;DHT22;2136;48.502;9.194;2023-02-05T06:00:07;4.20;94.40
4245;DHT22;2136;48.502;9.194;2023-02-05T06:02:39;4.20;94.80
4245;DHT22;2136;48.502;9.194;2023-02-05T06:05:08;4.30;94.70
4245;DHT22;2136;48.502;9.194;2023-02-05T06:07:35;4.30;94.50
4245;DHT22;2136;48.502;9.194;2023-02-05T06:10:02;4.30;94.20
4245;DHT22;2136;48.502;9.194;2023-02-05T06:12:29;4.30;93.90
4245;DHT22;2136;48.502;9.194;2023-02-05T06:14:57;4.30;93.80
4245;DHT22;2136;48.502;9.194;2023-02-05T06:17:24;4.30;93.50
4245;DHT22;2136;48.502;9.194;2023-02-05T06:19:52;4.30;93.40
4245;DHT22;2136;48.502;9.194;2023-02-05T06:22:19;4.30;93.60
4245;DHT22;2136;48.502;9.194;2023-02-05T06:24:46;4.20;93.50
4245;DHT22;2136;48.502;9.194;2023-02-05T06:27:13;4.20;93.30
4245;DHT22;2136;48.502;9.194;2023-02-05T06:29:39;4.10;92.90
4245;DHT22;2136;48.502;9.194;2023-02-05T06:32:07;4.10;92.80
4245;DHT22;2136;48.502;9.194;2023-02-05T06:34:34;4.00;92.90
4245;DHT22;2136;48.502;9.194;2023-02-05T06:37:01;4.00;92.70
4245;DHT22;2136;48.502;9.194;2023-02-05T06:39:28;3.90;92.40
4245;DHT22;2136;48.502;9.194;2023-02-05T06:41:55;3.90;92.70
4245;DHT22;2136;48.502;9.194;2023-02-05T06:44:22;4.00;93.00
4245;DHT22;2136;48.502;9.194;2023-02-05T06:46:49;3.80;92.90
4245;DHT22;2136;48.502;9.194;2023-02-05T06:49:17;3.90;93.70
4245;DHT22;2136;48.502;9.194;2023-02-05T06:51:44;3.70;94.00
4245;DHT22;2136;48.502;9.194;2023-02-05T06:54:11;3.70;94.40
4245;DHT22;2136;48.502;9.194;2023-02-05T06:56:38;3.80;94.90
4245;DHT22;2136;48.502;9.194;2023-02-05T06:59:04;3.80;95.30
4245;DHT22;2136;48.502;9.194;2023-02-05T07:01:31;3.90;95.90
4245;DHT22;2136;48.502;9.194;2023-02-05T07:03:58;3.90;96.20
4245;DHT22;2136;48.502;9.194;2023-02-05T07:06:26;3.90;96.00
4245;DHT22;2136;48.502;9.194;2023-02-05T07:08:54;4.00;96.00
4245;DHT22;2136;48.502;9.194;2023-02-05T07:11:21;4.00;95.20
4245;DHT22;2136;48.502;9.194;2023-02-05T07:13:48;4.00;95.10
4245;DHT22;2136;48.502;9.194;2023-02-05T07:16:15;4.10;95.10
4245;DHT22;2136;48.502;9.194;2023-02-05T07:18:42;4.10;94.50
4245;DHT22;2136;48.502;9.194;2023-02-05T07:21:11;4.10;94.40
4245;DHT22;2136;48.502;9.194;2023-02-05T07:23:42;4.10;94.40
4245;DHT22;2136;48.502;9.194;2023-02-05T07:26:10;4.20;94.20
4245;DHT22;2136;48.502;9.194;2023-02-05T07:28:37;4.20;94.10
4245;DHT22;2136;48.502;9.194;2023-02-05T07:31:05;4.20;93.80
4245;DHT22;2136;48.502;9.194;2023-02-05T07:33:32;4.30;93.90
4245;DHT22;2136;48.502;9.194;2023-02-05T07:36:01;4.40;93.20
4245;DHT22;2136;48.502;9.194;2023-02-05T07:38:28;4.40;92.60
4245;DHT22;2136;48.502;9.194;2023-02-05T07:40:56;4.40;92.30
4245;DHT22;2136;48.502;9.194;2023-02-05T07:43:23;4.60;92.10
4245;DHT22;2136;48.502;9.194;2023-02-05T07:45:55;4.50;91.80
4245;DHT22;2136;48.502;9.194;2023-02-05T07:48:22;4.50;91.50
4245;DHT22;2136;48.502;9.194;2023-02-05T07:50:48;4.60;91.30
4245;DHT22;2136;48.502;9.194;2023-02-05T07:53:15;4.60;91.10
4245;DHT22;2136;48.502;9.194;2023-02-05T07:55:42;4.60;91.00
4245;DHT22;2136;48.502;9.194;2023-02-05T07:58:11;4.60;90.80
4245;DHT22;2136;48.502;9.194;2023-02-05T08:00:38;4.70;90.90
4245;DHT22;2136;48.502;9.194;2023-02-05T08:03:05;4.70;90.80
4245;DHT22;2136;48.502;9.194;2023-02-05T08:05:32;4.70;90.40
4245;DHT22;2136;48.502;9.194;2023-02-05T08:07:59;4.80;90.50
4245;DHT22;2136;48.502;9.194;2023-02-05T08:10:26;4.80;90.30
4245;DHT22;2136;48.502;9.194;2023-02-05T08:12:53;4.90;90.90
4245;DHT22;2136;48.502;9.194;2023-02-05T08:15:21;5.00;90.30
4245;DHT22;2136;48.502;9.194;2023-02-05T08:17:48;5.00;90.30
4245;DHT22;2136;48.502;9.194;2023-02-05T08:20:15;5.00;89.40
4245;DHT22;2136;48.502;9.194;2023-02-05T08:22:42;5.10;89.00
4245;DHT22;2136;48.502;9.194;2023-02-05T08:25:12;5.10;88.80
4245;DHT22;2136;48.502;9.194;2023-02-05T08:27:40;5.30;88.90
4245;DHT22;2136;48.502;9.194;2023-02-05T08:30:10;5.20;88.50
4245;DHT22;2136;48.502;9.194;2023-02-05T08:32:38;5.20;88.40
4245;DHT22;2136;48.502;9.194;2023-02-05T08:35:05;5.30;88.10
4245;DHT22;2136;48.502;9.194;2023-02-05T08:37:32;5.30;88.20
4245;DHT22;2136;48.502;9.194;2023-02-05T08:39:59;5.40;87.90
4245;DHT22;2136;48.502;9.194;2023-02-05T08:42:26;5.30;87.30
4245;DHT22;2136;48.502;9.194;2023-02-05T08:44:53;5.40;86.50
4245;DHT22;2136;48.502;9.194;2023-02-05T08:47:23;5.50;86.10
4245;DHT22;2136;48.502;9.194;2023-02-05T08:49:52;5.40;86.60
4245;DHT22;2136;48.502;9.194;2023-02-05T08:52:19;5.40;85.40
4245;DHT22;2136;48.502;9.194;2023-02-05T08:54:46;5.50;85.80
4245;DHT22;2136;48.502;9.194;2023-02-05T08:57:13;5.50;86.20
4245;DHT22;2136;48.502;9.194;2023-02-05T08:59:41;5.60;86.50
4245;DHT22;2136;48.502;9.194;2023-02-05T09:02:11;5.60;85.60
4245;DHT22;2136;48.502;9.194;2023-02-05T09:04:39;5.70;84.60
4245;DHT22;2136;48.502;9.194;2023-02-05T09:07:07;5.70;84.10
4245;DHT22;2136;48.502;9.194;2023-02-05T09:09:34;5.70;83.70
4245;DHT22;2136;48.502;9.194;2023-02-05T09:12:01;5.80;83.20
4245;DHT22;2136;48.502;9.194;2023-02-05T09:14:28;5.90;83.20
4245;DHT22;2136;48.502;9.194;2023-02-05T09:17:00;6.00;83.00
4245;DHT22;2136;48.502;9.194;2023-02-05T09:19:27;6.00;82.40
4245;DHT22;2136;48.502;9.194;2023-02-05T09:21:54;6.10;82.10
4245;DHT22;2136;48.502;9.194;2023-02-05T09:24:22;6.20;82.10
4245;DHT22;2136;48.502;9.194;2023-02-05T09:26:50;6.30;82.10
4245;DHT22;2136;48.502;9.194;2023-02-05T09:29:17;6.50;81.50
4245;DHT22;2136;48.502;9.194;2023-02-05T09:31:43;6.60;80.90
4245;DHT22;2136;48.502;9.194;2023-02-05T09:34:11;6.70;80.00
4245;DHT22;2136;48.502;9.194;2023-02-05T09:36:39;6.70;78.60
4245;DHT22;2136;48.502;9.194;2023-02-05T09:39:06;6.70;76.70
4245;DHT22;2136;48.502;9.194;2023-02-05T09:41:38;6.70;75.40
4245;DHT22;2136;48.502;9.194;2023-02-05T09:44:15;6.70;74.80
4245;DHT22;2136;48.502;9.194;2023-02-05T09:46:52;6.70;74.60
4245;DHT22;2136;48.502;9.194;2023-02-05T09:49:26;6.70;74.70
4245;DHT22;2136;48.502;9.194;2023-02-05T09:51:58;6.70;75.00
4245;DHT22;2136;48.502;9.194;2023-02-05T09:54:29;6.70;75.10
4245;DHT22;2136;48.502;9.194;2023-02-05T09:57:02;6.70;75.10
4245;DHT22;2136;48.502;9.194;2023-02-05T09:59:30;6.70;75.00
4245;DHT22;2136;48.502;9.194;2023-02-05T10:02:00;6.70;74.90
4245;DHT22;2136;48.502;9.194;2023-02-05T10:04:28;6.70;75.00
4245;DHT22;2136;48.502;9.194;2023-02-05T10:07:23;6.70;74.80
4245;DHT22;2136;48.502;9.194;2023-02-05T10:10:24;6.70;74.70
4245;DHT22;2136;48.502;9.194;2023-02-05T10:13:07;6.60;73.40
4245;DHT22;2136;48.502;9.194;2023-02-05T10:15:52;6.60;73.50
4245;DHT22;2136;48.502;9.194;2023-02-05T10:18:25;6.60;74.00
4245;DHT22;2136;48.502;9.194;2023-02-05T10:21:00;6.50;73.70
4245;DHT22;2136;48.502;9.194;2023-02-05T10:23:46;6.60;74.30
4245;DHT22;2136;48.502;9.194;2023-02-05T10:26:16;6.60;74.30
4245;DHT22;2136;48.502;9.194;2023-02-05T10:31:42;6.50;75.30
4245;DHT22;2136;48.502;9.194;2023-02-05T10:34:17;6.40;75.50
4245;DHT22;2136;48.502;9.194;2023-02-05T10:36:47;6.30;76.70
4245;DHT22;2136;48.502;9.194;2023-02-05T10:39:18;6.30;78.00
4245;DHT22;2136;48.502;9.194;2023-02-05T10:41:50;6.20;79.20
4245;DHT22;2136;48.502;9.194;2023-02-05T10:44:23;6.20;80.60
4245;DHT22;2136;48.502;9.194;2023-02-05T10:46:56;6.10;81.60
4245;DHT22;2136;48.502;9.194;2023-02-05T10:49:36;6.10;82.70
4245;DHT22;2136;48.502;9.194;2023-02-05T10:52:03;6.00;83.90
4245;DHT22;2136;48.502;9.194;2023-02-05T10:54:31;6.00;84.50
4245;DHT22;2136;48.502;9.194;2023-02-05T10:56:59;5.90;85.90
4245;DHT22;2136;48.502;9.194;2023-02-05T10:59:29;5.90;87.40
4245;DHT22;2136;48.502;9.194;2023-02-05T11:02:00;5.90;89.00
4245;DHT22;2136;48.502;9.194;2023-02-05T11:04:32;5.90;90.00
4245;DHT22;2136;48.502;9.194;2023-02-05T11:07:01;5.90;90.40
4245;DHT22;2136;48.502;9.194;2023-02-05T11:09:32;5.90;90.90
4245;DHT22;2136;48.502;9.194;2023-02-05T11:12:01;5.90;90.90
4245;DHT22;2136;48.502;9.194;2023-02-05T11:14:34;5.90;91.30
4245;DHT22;2136;48.502;9.194;2023-02-05T11:17:17;5.90;91.50
4245;DHT22;2136;48.502;9.194;2023-02-05T11:19:51;6.00;91.70
4245;DHT22;2136;48.502;9.194;2023-02-05T11:22:24;6.00;92.10
4245;DHT22;2136;48.502;9.194;2023-02-05T11:25:04;6.10;92.50
4245;DHT22;2136;48.502;9.194;2023-02-05T11:27:33;6.10;92.80
4245;DHT22;2136;48.502;9.194;2023-02-05T11:30:24;6.10;93.00
4245;DHT22;2136;48.502;9.194;2023-02-05T11:32:52;6.20;92.30
4245;DHT22;2136;48.502;9.194;2023-02-05T11:35:22;6.20;91.50
4245;DHT22;2136;48.502;9.194;2023-02-05T11:37:59;6.20;91.80
4245;DHT22;2136;48.502;9.194;2023-02-05T11:40:27;6.10;91.50
4245;DHT22;2136;48.502;9.194;2023-02-05T11:43:00;6.10;91.40
4245;DHT22;2136;48.502;9.194;2023-02-05T11:45:30;6.10;91.70
4245;DHT22;2136;48.502;9.194;2023-02-05T11:48:00;6.10;91.90
4245;DHT22;2136;48.502;9.194;2023-02-05T11:50:28;6.10;92.10
4245;DHT22;2136;48.502;9.194;2023-02-05T11:53:08;6.10;91.70
4245;DHT22;2136;48.502;9.194;2023-02-05T11:55:39;6.10;92.50
4245;DHT22;2136;48.502;9.194;2023-02-05T11:58:18;6.00;92.80
4245;DHT22;2136;48.502;9.194;2023-02-05T12:00:51;6.00;93.30
4245;DHT22;2136;48.502;9.194;2023-02-05T12:03:18;6.10;93.50
4245;DHT22;2136;48.502;9.194;2023-02-05T12:05:50;6.10;93.60
4245;DHT22;2136;48.502;9.194;2023-02-05T12:08:29;6.10;93.50
4245;DHT22;2136;48.502;9.194;2023-02-05T12:11:06;6.10;93.30
4245;DHT22;2136;48.502;9.194;2023-02-05T12:13:47;6.10;93.40
4245;DHT22;2136;48.502;9.194;2023-02-05T12:16:36;6.10;94.00
4245;DHT22;2136;48.502;9.194;2023-02-05T12:19:16;6.10;94.00
4245;DHT22;2136;48.502;9.194;2023-02-05T12:21:47;6.10;94.40
4245;DHT22;2136;48.502;9.194;2023-02-05T12:27:12;6.20;94.40
4245;DHT22;2136;48.502;9.194;2023-02-05T12:29:52;6.20;94.30
4245;DHT22;2136;48.502;9.194;2023-02-05T12:32:32;6.20;94.20
4245;DHT22;2136;48.502;9.194;2023-02-05T12:35:12;6.20;94.40
4245;DHT22;2136;48.502;9.194;2023-02-05T12:37:47;6.10;94.40
4245;DHT22;2136;48.502;9.194;2023-02-05T12:40:25;6.10;94.70
4245;DHT22;2136;48.502;9.194;2023-02-05T12:42:58;6.10;95.00
4245;DHT22;2136;48.502;9.194;2023-02-05T12:45:37;6.30;95.00
4245;DHT22;2136;48.502;9.194;2023-02-05T12:48:24;6.10;94.60
4245;DHT22;2136;48.502;9.194;2023-02-05T12:51:02;6.20;94.40
4245;DHT22;2136;48.502;9.194;2023-02-05T12:53:42;6.10;94.70
4245;DHT22;2136;48.502;9.194;2023-02-05T12:56:28;6.10;94.70
4245;DHT22;2136;48.502;9.194;2023-02-05T12:59:00;6.10;95.10
4245;DHT22;2136;48.502;9.194;2023-02-05T13:01:38;6.10;95.40
4245;DHT22;2136;48.502;9.194;2023-02-05T13:04:18;6.10;94.60
4245;DHT22;2136;48.502;9.194;2023-02-05T13:06:50;6.10;94.20
4245;DHT22;2136;48.502;9.194;2023-02-05T13:09:21;6.00;94.50
4245;DHT22;2136;48.502;9.194;2023-02-05T13:11:55;6.00;94.40
4245;DHT22;2136;48.502;9.194;2023-02-05T13:14:25;6.00;94.80
4245;DHT22;2136;48.502;9.194;2023-02-05T13:16:59;5.90;94.90
4245;DHT22;2136;48.502;9.194;2023-02-05T13:19:31;5.90;95.10
4245;DHT22;2136;48.502;9.194;2023-02-05T13:22:01;5.90;95.20
4245;DHT22;2136;48.502;9.194;2023-02-05T13:24:50;5.90;95.60
4245;DHT22;2136;48.502;9.194;2023-02-05T13:27:39;5.80;95.50
4245;DHT22;2136;48.502;9.194;2023-02-05T13:30:27;5.70;96.40
4245;DHT22;2136;48.502;9.194;2023-02-05T13:32:58;5.70;96.60
4245;DHT22;2136;48.502;9.194;2023-02-05T13:35:32;5.70;97.30
4245;DHT22;2136;48.502;9.194;2023-02-05T13:38:11;5.60;97.70
4245;DHT22;2136;48.502;9.194;2023-02-05T13:41:01;5.60;97.70
4245;DHT22;2136;48.502;9.194;2023-02-05T13:43:49;5.60;98.00
4245;DHT22;2136;48.502;9.194;2023-02-05T13:49:56;5.50;98.70
4245;DHT22;2136;48.502;9.194;2023-02-05T13:52:46;5.50;98.50
4245;DHT22;2136;48.502;9.194;2023-02-05T13:55:51;5.50;98.90
4245;DHT22;2136;48.502;9.194;2023-02-05T13:58:21;5.40;99.60
4245;DHT22;2136;48.502;9.194;2023-02-05T14:00:53;5.40;99.30
4245;DHT22;2136;48.502;9.194;2023-02-05T14:03:29;5.40;99.90
4245;DHT22;2136;48.502;9.194;2023-02-05T14:06:14;5.40;99.60
4245;DHT22;2136;48.502;9.194;2023-02-05T14:08:43;5.40;99.90
4245;DHT22;2136;48.502;9.194;2023-02-05T14:11:10;5.50;99.90
4245;DHT22;2136;48.502;9.194;2023-02-05T14:13:37;5.40;99.90
4245;DHT22;2136;48.502;9.194;2023-02-05T14:16:32;5.60;99.90
4245;DHT22;2136;48.502;9.194;2023-02-05T14:19:13;5.50;99.90
4245;DHT22;2136;48.502;9.194;2023-02-05T14:22:04;5.50;99.90
4245;DHT22;2136;48.502;9.194;2023-02-05T14:24:49;5.60;99.90
4245;DHT22;2136;48.502;9.194;2023-02-05T14:27:48;5.50;99.90
4245;DHT22;2136;48.502;9.194;2023-02-05T14:30:46;5.50;99.90
4245;DHT22;2136;48.502;9.194;2023-02-05T14:33:33;5.50;99.90
4245;DHT22;2136;48.502;9.194;2023-02-05T14:36:29;5.50;99.90
4245;DHT22;2136;48.502;9.194;2023-02-05T14:39:00;5.50;99.90
4245;DHT22;2136;48.502;9.194;2023-02-05T14:41:30;5.50;99.90
4245;DHT22;2136;48.502;9.194;2023-02-05T14:44:02;5.50;99.90
4245;DHT22;2136;48.502;9.194;2023-02-05T14:46:33;5.50;99.90
4245;DHT22;2136;48.502;9.194;2023-02-05T14:49:05;5.50;99.90
4245;DHT22;2136;48.502;9.194;2023-02-05T14:51:35;5.50;99.20
4245;DHT22;2136;48.502;9.194;2023-02-05T14:54:08;5.40;99.40
4245;DHT22;2136;48.502;9.194;2023-02-05T14:56:44;5.40;99.90
4245;DHT22;2136;48.502;9.194;2023-02-05T14:59:19;5.40;99.90
4245;DHT22;2136;48.502;9.194;2023-02-05T15:01:47;5.40;99.90
4245;DHT22;2136;48.502;9.194;2023-02-05T15:04:35;5.40;99.90
4245;DHT22;2136;48.502;9.194;2023-02-05T15:07:10;5.40;99.90
4245;DHT22;2136;48.502;9.194;2023-02-05T15:09:42;5.50;99.90
4245;DHT22;2136;48.502;9.194;2023-02-05T15:12:53;5.50;99.90
4245;DHT22;2136;48.502;9.194;2023-02-05T15:15:29;5.50;99.90
4245;DHT22;2136;48.502;9.194;2023-02-05T15:18:03;5.50;99.70
4245;DHT22;2136;48.502;9.194;2023-02-05T15:20:31;5.40;99.30
4245;DHT22;2136;48.502;9.194;2023-02-05T15:23:03;5.40;99.30
4245;DHT22;2136;48.502;9.194;2023-02-05T15:25:36;5.40;99.30
4245;DHT22;2136;48.502;9.194;2023-02-05T15:28:11;5.60;99.50
4245;DHT22;2136;48.502;9.194;2023-02-05T15:30:52;5.40;99.10
4245;DHT22;2136;48.502;9.194;2023-02-05T15:33:27;5.30;98.20
4245;DHT22;2136;48.502;9.194;2023-02-05T15:35:57;5.30;97.50
4245;DHT22;2136;48.502;9.194;2023-02-05T15:38:31;5.30;97.10
4245;DHT22;2136;48.502;9.194;2023-02-05T15:41:04;5.20;97.30
4245;DHT22;2136;48.502;9.194;2023-02-05T15:43:33;5.20;97.40
4245;DHT22;2136;48.502;9.194;2023-02-05T15:46:02;5.20;98.00
4245;DHT22;2136;48.502;9.194;2023-02-05T15:48:31;5.20;98.80
4245;DHT22;2136;48.502;9.194;2023-02-05T15:51:00;5.10;99.20
4245;DHT22;2136;48.502;9.194;2023-02-05T15:53:32;5.10;99.60
4245;DHT22;2136;48.502;9.194;2023-02-05T15:56:05;5.10;99.90
4245;DHT22;2136;48.502;9.194;2023-02-05T15:58:35;5.10;99.90
4245;DHT22;2136;48.502;9.194;2023-02-05T16:01:02;5.20;99.90
4245;DHT22;2136;48.502;9.194;2023-02-05T16:03:31;5.20;99.90
4245;DHT22;2136;48.502;9.194;2023-02-05T16:05:59;5.20;99.90
4245;DHT22;2136;48.502;9.194;2023-02-05T16:08:26;5.20;99.90
4245;DHT22;2136;48.502;9.194;2023-02-05T16:10:55;5.20;99.90
4245;DHT22;2136;48.502;9.194;2023-02-05T16:13:23;5.20;99.90
4245;DHT22;2136;48.502;9.194;2023-02-05T16:15:58;5.20;99.90
4245;DHT22;2136;48.502;9.194;2023-02-05T16:18:34;5.30;99.90
4245;DHT22;2136;48.502;9.194;2023-02-05T16:21:04;5.30;99.70
4245;DHT22;2136;48.502;9.194;2023-02-05T16:23:37;5.30;99.60
4245;DHT22;2136;48.502;9.194;2023-02-05T16:26:10;5.30;99.50
4245;DHT22;2136;48.502;9.194;2023-02-05T16:28:42;5.30;99.30
4245;DHT22;2136;48.502;9.194;2023-02-05T16:31:17;5.30;99.00
4245;DHT22;2136;48.502;9.194;2023-02-05T16:33:47;5.30;98.40
4245;DHT22;2136;48.502;9.194;2023-02-05T16:36:18;5.20;97.80
4245;DHT22;2136;48.502;9.194;2023-02-05T16:38:49;5.20;97.70
4245;DHT22;2136;48.502;9.194;2023-02-05T16:41:20;5.20;97.70
4245;DHT22;2136;48.502;9.194;2023-02-05T16:43:48;5.10;97.60
4245;DHT22;2136;48.502;9.194;2023-02-05T16:46:23;5.10;97.40
4245;DHT22;2136;48.502;9.194;2023-02-05T16:48:53;5.00;97.20
4245;DHT22;2136;48.502;9.194;2023-02-05T16:51:35;5.00;97.20
4245;DHT22;2136;48.502;9.194;2023-02-05T16:54:27;5.00;97.10
4245;DHT22;2136;48.502;9.194;2023-02-05T16:57:02;4.90;96.80
4245;DHT22;2136;48.502;9.194;2023-02-05T16:59:32;4.90;96.40